Time;durP1;ratioP1;P1;durP2;ratioP2;P2;SDS_P1;SDS_P2;PMS_P1;PMS_P2;Temp;Humidity;BMP_temperature;BMP_pressure;BME280_temperature;BME280_humidity;BME280_pressure;Samples;Min_cycle;Max_cycle;Signal;HPM_P1;HPM_P2
2021/03/23 07:06:21;;;;;;;7.23;3.73;;;9.70;99.90;;;;;;4410928;23;20336;-69
2021/03/23 07:09:05;;;;;;;12.87;4.67;;;10.20;99.90;;;;;;4916964;29;20273;-68
2021/03/23 07:11:53;;;;;;;10.40;4.50;;;10.70;99.90;;;;;;4917099;29;20214;-68
2021/03/23 07:14:24;;;;;;;12.23;4.13;;;11.20;99.90;;;;;;4917019;29;20229;-68
2021/03/23 07:16:51;;;;;;;11.67;4.40;;;11.60;99.90;;;;;;4917106;29;20227;-68
2021/03/23 07:19:17;;;;;;;9.87;4.53;;;11.90;99.90;;;;;;4916826;29;20673;-68
2021/03/23 07:21:50;;;;;;;11.60;4.50;;;12.10;99.90;;;;;;4916818;29;20257;-68
2021/03/23 07:24:19;;;;;;;11.33;4.47;;;12.30;99.90;;;;;;4916782;29;20245;-68
2021/03/23 07:26:57;;;;;;;13.37;5.03;;;12.60;99.90;;;;;;4917227;29;20213;-68
2021/03/23 07:29:27;;;;;;;17.27;5.77;;;13.00;99.90;;;;;;4912133;29;20213;-69
2021/03/23 07:32:13;;;;;;;8.20;4.30;;;13.70;99.90;;;;;;4915052;29;20220;-68
2021/03/23 07:34:54;;;;;;;11.60;4.87;;;14.00;99.90;;;;;;4914465;29;20688;-73
2021/03/23 07:37:25;;;;;;;12.40;4.87;;;14.10;99.90;;;;;;4915187;29;20214;-68
2021/03/23 07:39:55;;;;;;;10.10;4.27;;;14.20;99.90;;;;;;4915067;29;20732;-68
2021/03/23 07:42:27;;;;;;;13.00;4.73;;;14.10;99.90;;;;;;4915409;29;20728;-68
2021/03/23 07:44:57;;;;;;;12.13;4.90;;;14.30;99.90;;;;;;4914408;29;20687;-68
2021/03/23 07:47:34;;;;;;;13.50;5.00;;;14.50;99.90;;;;;;4915524;29;20263;-68
2021/03/23 07:50:11;;;;;;;12.20;5.17;;;14.60;99.80;;;;;;4915127;29;20252;-68
2021/03/23 07:52:43;;;;;;;14.07;5.53;;;14.90;99.00;;;;;;4915031;29;20229;-68
2021/03/23 07:55:18;;;;;;;15.43;5.50;;;15.30;98.50;;;;;;4915267;29;20214;-69
2021/03/23 07:58:05;;;;;;;10.77;5.23;;;15.70;97.90;;;;;;4914977;29;20209;-68
2021/03/23 08:00:53;;;;;;;7.70;4.10;;;16.20;97.10;;;;;;4914645;29;20217;-68
2021/03/23 08:04:01;;;;;;;11.90;5.37;;;15.80;96.80;;;;;;4914918;29;20692;-68
2021/03/23 08:06:37;;;;;;;11.43;4.73;;;16.20;96.60;;;;;;4875207;29;546991;-69
2021/03/23 08:09:38;;;;;;;9.20;4.57;;;16.40;96.00;;;;;;4915715;29;20228;-69
2021/03/23 08:12:42;;;;;;;11.53;4.70;;;16.30;95.60;;;;;;4915198;29;20672;-68
2021/03/23 08:15:28;;;;;;;8.87;4.77;;;16.10;95.70;;;;;;4915499;29;20209;-68
2021/03/23 08:18:33;;;;;;;13.30;5.10;;;15.60;96.00;;;;;;4913499;29;20209;-68
2021/03/23 08:21:17;;;;;;;13.93;5.33;;;15.60;95.80;;;;;;4898758;29;20222;-68
2021/03/23 08:23:59;;;;;;;12.50;4.90;;;15.80;95.80;;;;;;4915330;29;20225;-68
2021/03/23 08:26:38;;;;;;;9.83;3.73;;;16.00;95.10;;;;;;4915499;29;20209;-69
2021/03/23 08:29:15;;;;;;;10.37;4.00;;;15.80;95.20;;;;;;4914718;29;20214;-69
2021/03/23 08:31:52;;;;;;;8.13;4.13;;;15.60;95.00;;;;;;4915481;29;20205;-68
2021/03/23 08:34:45;;;;;;;9.60;4.20;;;15.00;95.60;;;;;;4915514;29;20240;-68
2021/03/23 08:37:41;;;;;;;8.03;4.20;;;15.20;95.90;;;;;;4915110;29;20224;-68
2021/03/23 08:40:18;;;;;;;9.83;4.10;;;15.40;95.50;;;;;;4915164;29;20217;-68
2021/03/23 08:42:46;;;;;;;7.20;3.97;;;15.50;95.50;;;;;;4913798;29;20227;-71
2021/03/23 08:45:19;;;;;;;9.90;3.80;;;15.50;95.20;;;;;;4914330;29;20206;-70
2021/03/23 08:47:48;;;;;;;8.70;4.00;;;15.70;95.00;;;;;;4914720;29;20272;-70
2021/03/23 08:50:21;;;;;;;8.00;3.60;;;15.60;95.00;;;;;;4914787;29;20249;-68
2021/03/23 08:52:50;;;;;;;8.50;3.73;;;15.80;95.20;;;;;;4914773;29;20233;-70
2021/03/23 08:55:44;;;;;;;8.50;4.33;;;15.70;94.70;;;;;;4914679;29;20231;-71
2021/03/23 08:58:14;;;;;;;9.97;4.00;;;15.70;94.80;;;;;;4910457;29;20269;-69
2021/03/23 09:00:55;;;;;;;10.70;3.73;;;15.40;95.40;;;;;;4915542;29;20197;-70
2021/03/23 09:03:46;;;;;;;8.90;3.97;;;15.50;95.40;;;;;;4915071;29;20236;-71
2021/03/23 09:06:14;;;;;;;7.03;3.37;;;15.30;95.20;;;;;;4914872;29;20233;-74
2021/03/23 09:08:46;;;;;;;9.47;4.00;;;15.20;95.50;;;;;;4914539;29;20212;-71
2021/03/23 09:11:42;;;;;;;8.40;3.93;;;15.00;95.50;;;;;;4915315;29;20240;-74
2021/03/23 09:14:19;;;;;;;10.73;4.13;;;14.90;95.90;;;;;;4899506;29;20230;-74
2021/03/23 09:17:18;;;;;;;8.17;3.37;;;14.80;96.10;;;;;;4900035;29;20221;-72
2021/03/23 09:19:54;;;;;;;10.83;4.13;;;14.80;96.30;;;;;;4914269;29;20249;-71
2021/03/23 09:22:39;;;;;;;12.23;4.43;;;15.30;96.10;;;;;;4918732;29;20233;-72
2021/03/23 09:25:24;;;;;;;8.47;4.40;;;14.60;96.20;;;;;;4918476;29;20209;-76
2021/03/23 09:28:11;;;;;;;11.80;4.37;;;14.50;96.50;;;;;;4917508;29;20672;-76
2021/03/23 09:30:54;;;;;;;7.33;3.37;;;14.20;97.10;;;;;;4915167;29;20237;-71
2021/03/23 09:33:36;;;;;;;9.40;3.70;;;14.10;97.30;;;;;;4918028;29;20284;-75
2021/03/23 09:36:39;;;;;;;9.60;4.30;;;13.90;97.20;;;;;;4918043;29;20243;-71
2021/03/23 09:39:43;;;;;;;10.53;3.90;;;13.70;97.70;;;;;;4917489;29;20213;-69
2021/03/23 09:42:20;;;;;;;13.97;4.23;;;13.70;97.90;;;;;;4905912;29;20209;-73
2021/03/23 09:44:58;;;;;;;11.97;3.90;;;13.50;98.30;;;;;;4918263;29;20220;-74
2021/03/23 09:47:49;;;;;;;11.00;4.70;;;13.40;98.60;;;;;;4917852;29;20264;-74
2021/03/23 09:50:27;;;;;;;8.93;3.87;;;13.40;99.30;;;;;;4917576;29;20637;-70
2021/03/23 09:53:01;;;;;;;10.17;3.83;;;13.30;98.40;;;;;;4917742;29;20233;-73
2021/03/23 09:55:28;;;;;;;8.30;3.73;;;13.30;98.70;;;;;;4918008;29;20209;-74
2021/03/23 09:57:56;;;;;;;7.50;3.37;;;13.30;98.50;;;;;;4917728;29;20209;-73
2021/03/23 10:00:26;;;;;;;5.73;3.10;;;13.20;98.50;;;;;;4918065;29;20674;-77
2021/03/23 10:02:54;;;;;;;11.33;3.50;;;13.00;98.50;;;;;;4917679;29;20743;-77
2021/03/23 10:05:22;;;;;;;6.40;3.50;;;13.20;98.70;;;;;;4917403;29;20210;-74
2021/03/23 10:07:51;;;;;;;7.30;3.67;;;13.20;98.20;;;;;;4916877;29;20554;-76
2021/03/23 10:10:24;;;;;;;10.13;3.90;;;13.20;98.50;;;;;;4917898;29;20264;-71
2021/03/23 10:12:51;;;;;;;7.47;3.47;;;13.00;99.10;;;;;;4917032;29;20225;-72
2021/03/23 10:15:20;;;;;;;7.73;3.43;;;13.00;98.80;;;;;;4917429;29;20214;-71
2021/03/23 10:17:46;;;;;;;10.53;3.57;;;12.80;98.70;;;;;;4917819;29;20210;-76
2021/03/23 10:20:19;;;;;;;8.60;2.90;;;12.80;98.60;;;;;;4917578;29;20284;-73
2021/03/23 10:22:52;;;;;;;10.80;3.30;;;12.70;99.10;;;;;;4917551;29;20240;-74
2021/03/23 10:25:20;;;;;;;8.03;3.53;;;12.80;99.20;;;;;;4917159;29;20209;-74
2021/03/23 10:27:47;;;;;;;6.80;2.83;;;12.80;98.90;;;;;;4916069;29;20217;-71
2021/03/23 10:30:17;;;;;;;9.83;3.37;;;12.70;98.50;;;;;;4916629;29;20233;-73
2021/03/23 10:32:49;;;;;;;10.70;2.97;;;12.70;98.60;;;;;;4918758;29;20230;-73
2021/03/23 10:35:26;;;;;;;10.80;3.60;;;12.70;99.20;;;;;;4917380;29;20612;-70
2021/03/23 10:38:14;;;;;;;9.17;3.40;;;12.80;99.30;;;;;;4918267;29;20220;-69
2021/03/23 10:40:42;;;;;;;10.00;3.50;;;12.80;99.30;;;;;;4918848;29;20324;-72
2021/03/23 10:43:13;;;;;;;10.43;3.53;;;12.90;99.30;;;;;;4918615;29;20234;-73
2021/03/23 10:45:42;;;;;;;6.30;3.07;;;12.90;99.30;;;;;;4918556;29;20213;-72
2021/03/23 10:48:16;;;;;;;6.30;3.10;;;13.00;99.30;;;;;;4918408;29;20300;-73
2021/03/23 10:50:46;;;;;;;5.73;2.93;;;12.80;99.30;;;;;;4918514;29;20233;-72
2021/03/23 10:53:20;;;;;;;7.63;3.00;;;12.80;99.90;;;;;;4918440;29;20629;-72
2021/03/23 10:55:49;;;;;;;9.27;3.40;;;13.00;99.30;;;;;;4918179;29;20216;-73
2021/03/23 10:58:22;;;;;;;6.53;2.83;;;13.10;99.20;;;;;;4918106;29;20206;-73
2021/03/23 11:00:51;;;;;;;8.03;3.20;;;13.30;99.10;;;;;;4918433;29;20213;-73
2021/03/23 11:03:32;;;;;;;5.77;3.40;;;13.40;99.20;;;;;;4918080;29;20283;-72
2021/03/23 11:06:01;;;;;;;8.90;3.23;;;13.40;98.20;;;;;;4918136;29;20645;-72
2021/03/23 11:08:27;;;;;;;5.27;3.07;;;13.40;98.90;;;;;;4918107;29;20214;-73
2021/03/23 11:10:56;;;;;;;8.33;2.90;;;13.50;98.70;;;;;;4917787;29;20245;-73
2021/03/23 11:13:23;;;;;;;6.73;3.23;;;13.60;98.70;;;;;;4917890;29;20324;-73
2021/03/23 11:15:52;;;;;;;8.33;3.93;;;13.70;99.20;;;;;;4918361;29;20221;-73
2021/03/23 11:18:23;;;;;;;9.13;3.30;;;13.60;98.40;;;;;;4917969;29;20284;-73
2021/03/23 11:20:53;;;;;;;6.27;3.37;;;13.50;98.90;;;;;;4918073;29;20213;-70
2021/03/23 11:23:36;;;;;;;8.13;3.60;;;13.60;98.90;;;;;;4917611;29;20588;-72
2021/03/23 11:26:04;;;;;;;7.90;4.20;;;13.80;98.90;;;;;;4916224;29;20221;-73
2021/03/23 11:28:31;;;;;;;11.13;4.00;;;13.90;99.30;;;;;;4917935;29;20209;-72
2021/03/23 11:31:00;;;;;;;11.53;4.00;;;13.90;99.00;;;;;;4917640;29;20233;-70
2021/03/23 11:33:26;;;;;;;9.53;3.43;;;14.10;99.10;;;;;;4917610;29;20229;-71
2021/03/23 11:35:52;;;;;;;8.87;3.83;;;14.10;98.40;;;;;;4916895;29;20209;-71
2021/03/23 11:38:20;;;;;;;9.10;3.70;;;14.00;98.70;;;;;;4916423;29;20209;-70
2021/03/23 11:40:48;;;;;;;8.43;3.87;;;14.00;98.20;;;;;;4917633;29;20217;-73
2021/03/23 11:43:21;;;;;;;8.87;3.80;;;13.90;98.40;;;;;;4917662;29;20237;-73
2021/03/23 11:45:48;;;;;;;10.37;3.83;;;13.90;99.20;;;;;;4917424;29;20217;-73
2021/03/23 11:48:17;;;;;;;9.03;4.27;;;13.90;99.00;;;;;;4917455;29;20218;-73
2021/03/23 11:50:48;;;;;;;10.30;4.87;;;13.90;98.80;;;;;;4917175;29;20734;-73
2021/03/23 11:53:15;;;;;;;7.30;3.83;;;13.90;98.60;;;;;;4917497;29;20233;-73
2021/03/23 11:55:45;;;;;;;11.43;3.80;;;13.90;98.50;;;;;;4917304;29;20572;-73
2021/03/23 11:58:14;;;;;;;8.33;3.77;;;14.00;98.70;;;;;;4917413;29;20257;-72
2021/03/23 12:00:40;;;;;;;10.10;4.20;;;14.00;98.40;;;;;;4916956;29;20209;-72
2021/03/23 12:03:10;;;;;;;7.47;4.37;;;13.80;98.70;;;;;;4917105;29;20240;-72
2021/03/23 12:05:38;;;;;;;8.70;4.00;;;13.60;99.10;;;;;;4917366;29;20213;-73
2021/03/23 12:08:29;;;;;;;10.40;4.10;;;13.60;98.90;;;;;;4917061;29;20233;-73
2021/03/23 12:11:09;;;;;;;10.90;4.30;;;13.60;99.70;;;;;;4917059;29;20592;-72
2021/03/23 12:13:45;;;;;;;10.03;4.53;;;13.70;99.70;;;;;;4917167;29;20231;-69
2021/03/23 12:16:17;;;;;;;9.63;3.93;;;13.80;99.00;;;;;;4917056;29;20216;-73
2021/03/23 12:18:54;;;;;;;10.43;4.43;;;13.80;99.40;;;;;;4917030;29;20210;-72
2021/03/23 12:21:22;;;;;;;8.57;3.87;;;13.70;99.50;;;;;;4916697;29;20252;-73
2021/03/23 12:23:49;;;;;;;8.73;3.90;;;13.70;99.20;;;;;;4916793;29;20245;-73
2021/03/23 12:26:16;;;;;;;8.33;4.00;;;13.70;99.10;;;;;;4916959;29;20205;-69
2021/03/23 12:28:44;;;;;;;6.10;3.60;;;13.70;99.10;;;;;;4917061;29;20209;-72
2021/03/23 12:31:11;;;;;;;8.07;4.17;;;13.70;99.20;;;;;;4916908;29;20245;-73
2021/03/23 12:33:37;;;;;;;11.53;4.80;;;13.70;99.70;;;;;;4916669;29;20284;-70
2021/03/23 12:36:04;;;;;;;7.97;4.17;;;13.60;98.90;;;;;;4916791;29;20221;-69
2021/03/23 12:38:31;;;;;;;10.83;4.47;;;13.40;99.50;;;;;;4916443;29;20249;-72
2021/03/23 12:40:58;;;;;;;8.90;4.33;;;13.40;99.70;;;;;;4916538;29;20249;-70
2021/03/23 12:43:27;;;;;;;7.63;4.07;;;13.40;99.70;;;;;;4916674;29;20281;-72
2021/03/23 12:45:56;;;;;;;8.57;4.67;;;13.50;99.40;;;;;;4916573;29;20233;-72
2021/03/23 12:48:23;;;;;;;10.50;4.43;;;13.60;99.30;;;;;;4919696;29;20280;-71
2021/03/23 12:50:50;;;;;;;7.83;4.77;;;13.70;99.20;;;;;;4920312;29;20241;-73
2021/03/23 12:53:19;;;;;;;12.83;4.30;;;13.60;99.00;;;;;;4920109;29;20230;-73
2021/03/23 12:55:51;;;;;;;11.27;4.20;;;13.60;99.30;;;;;;4920553;29;20736;-72
2021/03/23 12:58:20;;;;;;;9.83;5.13;;;13.50;99.50;;;;;;4920504;29;20213;-73
2021/03/23 13:00:46;;;;;;;12.10;4.43;;;13.60;99.80;;;;;;4920530;29;20213;-72
2021/03/23 13:03:14;;;;;;;8.43;4.43;;;13.60;99.40;;;;;;4920844;29;20233;-72
2021/03/23 13:05:41;;;;;;;11.40;5.03;;;13.80;99.30;;;;;;4920147;29;20210;-72
2021/03/23 13:08:20;;;;;;;6.47;3.90;;;13.70;98.80;;;;;;4919769;29;20221;-72
2021/03/23 13:10:50;;;;;;;6.87;3.87;;;13.80;99.00;;;;;;4920148;29;20240;-73
2021/03/23 13:13:19;;;;;;;9.30;4.30;;;13.80;98.90;;;;;;4920157;29;20320;-71
2021/03/23 13:15:45;;;;;;;9.27;4.57;;;13.90;99.10;;;;;;4920264;29;20221;-72
2021/03/23 13:18:14;;;;;;;9.60;4.43;;;13.90;98.00;;;;;;4919834;29;20220;-73
2021/03/23 13:20:41;;;;;;;9.33;4.33;;;13.80;98.70;;;;;;4920288;29;20205;-74
2021/03/23 13:23:14;;;;;;;11.20;4.77;;;13.90;99.40;;;;;;4920115;29;20265;-72
2021/03/23 13:25:41;;;;;;;9.87;4.77;;;13.80;98.70;;;;;;4919872;29;20213;-72
2021/03/23 13:28:23;;;;;;;8.97;5.30;;;13.80;99.20;;;;;;4918778;29;20691;-72
2021/03/23 13:30:50;;;;;;;8.83;3.97;;;13.90;99.30;;;;;;4919741;29;20707;-72
2021/03/23 13:33:18;;;;;;;8.53;4.50;;;13.90;98.70;;;;;;4919909;29;20234;-73
2021/03/23 13:35:45;;;;;;;8.57;4.43;;;13.80;99.20;;;;;;4919472;29;20331;-73
2021/03/23 13:38:13;;;;;;;11.93;4.40;;;13.90;99.20;;;;;;4921872;29;20216;-72
2021/03/23 13:40:41;;;;;;;11.80;4.50;;;13.90;98.80;;;;;;4938251;29;20213;-73
2021/03/23 13:43:08;;;;;;;10.70;5.10;;;14.00;98.90;;;;;;4923996;29;20233;-72
2021/03/23 13:45:38;;;;;;;9.27;4.53;;;14.00;98.60;;;;;;4919534;29;20273;-72
2021/03/23 13:48:17;;;;;;;9.07;4.67;;;13.90;99.30;;;;;;4919482;29;20526;-74
2021/03/23 13:50:44;;;;;;;11.03;4.77;;;13.90;98.90;;;;;;4919661;29;20241;-72
2021/03/23 13:53:14;;;;;;;10.00;5.07;;;14.00;98.80;;;;;;4919475;29;20233;-68
2021/03/23 13:55:44;;;;;;;7.80;4.67;;;14.00;98.60;;;;;;4919249;29;20213;-73
2021/03/23 13:58:10;;;;;;;7.87;4.97;;;14.00;98.20;;;;;;4917979;29;20206;-74
2021/03/23 14:00:39;;;;;;;7.10;4.30;;;14.00;98.80;;;;;;4918414;29;20217;-74
2021/03/23 14:03:06;;;;;;;9.97;4.60;;;14.00;98.70;;;;;;4919060;29;20229;-73
2021/03/23 14:05:33;;;;;;;10.17;5.43;;;13.90;99.10;;;;;;4923692;29;20213;-72
2021/03/23 14:08:02;;;;;;;8.40;4.63;;;13.90;98.70;;;;;;4924607;29;20250;-73
2021/03/23 14:10:30;;;;;;;11.63;4.80;;;13.90;98.90;;;;;;4918506;29;20229;-73
2021/03/23 14:12:57;;;;;;;11.53;5.13;;;13.90;99.10;;;;;;4918152;29;20312;-67
2021/03/23 14:15:26;;;;;;;8.70;4.90;;;13.90;99.10;;;;;;4918676;29;20213;-73
2021/03/23 14:17:53;;;;;;;9.20;5.23;;;14.00;98.60;;;;;;4918649;29;20206;-70
2021/03/23 14:20:20;;;;;;;8.07;4.83;;;14.00;99.30;;;;;;4918701;29;20209;-72
2021/03/23 14:22:48;;;;;;;9.47;5.00;;;14.00;98.30;;;;;;4918376;29;20229;-71
2021/03/23 14:25:29;;;;;;;10.33;5.07;;;14.00;98.60;;;;;;4918621;29;20288;-67
2021/03/23 14:27:56;;;;;;;10.13;5.40;;;14.00;98.90;;;;;;4918585;29;20288;-71
2021/03/23 14:30:25;;;;;;;14.23;6.37;;;13.90;99.40;;;;;;4918639;29;20257;-69
2021/03/23 14:32:51;;;;;;;10.27;5.50;;;14.00;98.60;;;;;;4918467;29;20229;-68
2021/03/23 14:35:19;;;;;;;7.97;5.40;;;14.00;98.90;;;;;;4918077;29;20687;-73
2021/03/23 14:37:47;;;;;;;10.57;5.63;;;14.00;98.70;;;;;;4918166;29;20205;-69
2021/03/23 14:40:19;;;;;;;11.97;5.90;;;14.00;98.90;;;;;;4918022;29;20206;-71
2021/03/23 14:42:46;;;;;;;10.30;5.40;;;14.00;99.20;;;;;;4918156;29;20229;-73
2021/03/23 14:45:14;;;;;;;10.10;5.10;;;14.00;98.80;;;;;;4917954;29;20206;-70
2021/03/23 14:47:41;;;;;;;10.53;5.80;;;14.10;99.10;;;;;;4917893;29;20210;-73
2021/03/23 14:50:08;;;;;;;9.40;5.27;;;14.20;99.00;;;;;;4918408;29;20217;-73
2021/03/23 14:52:35;;;;;;;9.40;5.30;;;14.30;98.80;;;;;;4917882;29;20764;-69
2021/03/23 14:55:05;;;;;;;10.77;5.37;;;14.30;99.10;;;;;;4917873;29;20206;-73
2021/03/23 14:57:33;;;;;;;14.47;5.43;;;14.30;99.10;;;;;;4917762;29;20210;-71
2021/03/23 15:00:00;;;;;;;9.17;5.40;;;14.20;99.00;;;;;;4917572;29;20736;-72
2021/03/23 15:02:27;;;;;;;13.13;5.43;;;14.10;99.20;;;;;;4917730;29;20597;-72
2021/03/23 15:04:53;;;;;;;13.00;5.77;;;14.10;99.00;;;;;;4917825;29;20202;-71
2021/03/23 15:07:24;;;;;;;12.00;6.03;;;14.10;99.20;;;;;;4917920;29;20580;-71
2021/03/23 15:09:51;;;;;;;12.03;5.80;;;14.10;99.00;;;;;;4918658;29;20245;-72
2021/03/23 15:12:17;;;;;;;14.90;6.80;;;14.10;99.20;;;;;;4927094;29;20229;-73
2021/03/23 15:14:43;;;;;;;11.10;6.10;;;14.10;99.20;;;;;;4917266;29;20546;-70
2021/03/23 15:17:12;;;;;;;12.47;5.60;;;14.20;98.80;;;;;;4917575;29;20202;-72
2021/03/23 15:19:39;;;;;;;9.83;5.33;;;14.10;98.70;;;;;;4917990;29;20272;-72
2021/03/23 15:22:12;;;;;;;13.17;6.00;;;14.00;98.80;;;;;;4917123;29;20691;-72
2021/03/23 15:24:38;;;;;;;14.40;5.77;;;13.90;99.20;;;;;;4917865;29;20220;-72
2021/03/23 15:27:05;;;;;;;12.77;6.17;;;13.90;99.30;;;;;;4917391;29;20202;-72
2021/03/23 15:29:31;;;;;;;11.77;5.60;;;13.80;99.50;;;;;;4917739;29;20257;-71
2021/03/23 15:32:00;;;;;;;9.83;5.60;;;13.80;99.70;;;;;;4917595;29;20248;-70
2021/03/23 15:34:27;;;;;;;14.10;6.73;;;13.90;99.90;;;;;;4917537;29;20344;-73
2021/03/23 15:36:55;;;;;;;13.23;6.20;;;13.90;99.60;;;;;;4916839;29;20205;-71
2021/03/23 15:39:28;;;;;;;10.53;6.13;;;14.00;99.30;;;;;;4916817;29;20561;-73
2021/03/23 15:41:57;;;;;;;12.07;6.43;;;14.00;99.40;;;;;;4916888;29;20210;-73
2021/03/23 15:44:24;;;;;;;18.10;6.60;;;13.90;99.20;;;;;;4916689;29;20226;-72
2021/03/23 15:46:50;;;;;;;18.73;8.53;;;13.90;99.40;;;;;;4917273;29;20202;-72
2021/03/23 15:49:17;;;;;;;15.67;6.73;;;13.90;99.80;;;;;;4917241;29;20214;-72
2021/03/23 15:51:44;;;;;;;9.63;5.57;;;13.90;99.60;;;;;;4917078;29;20236;-70
2021/03/23 15:54:12;;;;;;;10.90;5.83;;;13.80;99.10;;;;;;4916919;29;20226;-72
2021/03/23 15:56:43;;;;;;;12.80;7.13;;;13.90;99.60;;;;;;4931454;29;20209;-68
2021/03/23 15:59:12;;;;;;;12.23;7.00;;;13.90;99.20;;;;;;4935779;29;20209;-73
2021/03/23 16:01:38;;;;;;;11.97;6.83;;;13.80;99.60;;;;;;4928586;29;20206;-72
2021/03/23 16:04:05;;;;;;;12.90;6.60;;;13.90;99.80;;;;;;4926962;29;20231;-72
2021/03/23 16:06:31;;;;;;;15.30;5.73;;;13.80;99.70;;;;;;4920912;29;20217;-72
2021/03/23 16:09:03;;;;;;;8.60;6.00;;;13.70;99.70;;;;;;4924345;29;20216;-72
2021/03/23 16:11:30;;;;;;;10.43;5.93;;;13.70;99.90;;;;;;4931499;29;20268;-67
2021/03/23 16:13:56;;;;;;;8.90;5.50;;;13.70;99.70;;;;;;4935899;29;20228;-72
2021/03/23 16:16:22;;;;;;;11.27;5.23;;;13.60;99.40;;;;;;4935998;29;20212;-72
2021/03/23 16:18:49;;;;;;;10.53;5.00;;;13.60;99.10;;;;;;4935816;29;20213;-72
2021/03/23 16:21:17;;;;;;;9.40;5.07;;;13.50;99.40;;;;;;4919178;29;20685;-72
2021/03/23 16:23:43;;;;;;;9.67;5.20;;;13.40;99.70;;;;;;4916179;29;20233;-70
2021/03/23 16:26:15;;;;;;;14.00;5.90;;;13.40;99.90;;;;;;4916838;29;20257;-72
2021/03/23 16:28:42;;;;;;;9.87;5.70;;;13.40;99.90;;;;;;4917010;29;20213;-72
2021/03/23 16:31:18;;;;;;;11.67;5.57;;;13.50;99.80;;;;;;4916828;29;20237;-72
2021/03/23 16:33:44;;;;;;;12.33;5.30;;;13.50;99.40;;;;;;4916171;29;20225;-67
2021/03/23 16:36:10;;;;;;;9.83;5.27;;;13.50;99.40;;;;;;4916693;29;20209;-72
2021/03/23 16:38:36;;;;;;;14.20;6.27;;;13.40;99.60;;;;;;4916414;29;20309;-71
2021/03/23 16:41:03;;;;;;;9.30;5.20;;;13.40;99.80;;;;;;4917035;29;20261;-70
2021/03/23 16:43:31;;;;;;;11.03;6.00;;;13.40;99.60;;;;;;4916485;29;20313;-69
2021/03/23 16:46:05;;;;;;;13.67;5.50;;;13.40;99.80;;;;;;4916132;29;20214;-72
2021/03/23 16:48:31;;;;;;;10.87;5.53;;;13.40;99.90;;;;;;4916282;29;20260;-71
2021/03/23 16:50:57;;;;;;;12.17;6.50;;;13.40;99.80;;;;;;4919763;29;20264;-71
2021/03/23 16:53:25;;;;;;;10.30;5.77;;;13.30;99.90;;;;;;4926614;29;20222;-72
2021/03/23 16:55:52;;;;;;;10.30;5.77;;;13.30;99.90;;;;;;4916192;29;20557;-72
2021/03/23 16:58:19;;;;;;;13.63;6.50;;;13.20;99.90;;;;;;4920162;29;20217;-71
2021/03/23 17:00:46;;;;;;;10.23;5.80;;;13.20;99.90;;;;;;4916172;29;20217;-71
2021/03/23 17:03:15;;;;;;;12.87;5.80;;;13.20;99.90;;;;;;4915337;29;20249;-72
2021/03/23 17:05:44;;;;;;;14.00;6.53;;;13.30;99.90;;;;;;4916341;29;20213;-70
2021/03/23 17:08:10;;;;;;;12.33;5.13;;;13.30;99.90;;;;;;4916214;29;20664;-69
2021/03/23 17:10:37;;;;;;;9.23;5.60;;;13.30;99.90;;;;;;4916260;29;20240;-68
2021/03/23 17:13:04;;;;;;;13.17;6.60;;;13.20;99.90;;;;;;4916127;29;20297;-71
2021/03/23 17:15:32;;;;;;;13.20;6.17;;;13.20;99.90;;;;;;4915514;29;20614;-70
2021/03/23 17:18:00;;;;;;;13.07;5.83;;;13.20;99.90;;;;;;4918696;29;20204;-70
2021/03/23 17:20:28;;;;;;;11.00;5.67;;;13.10;99.90;;;;;;4934797;29;20213;-71
2021/03/23 17:22:55;;;;;;;11.57;5.50;;;13.10;99.90;;;;;;4918272;29;20230;-71
2021/03/23 17:25:23;;;;;;;18.60;8.23;;;13.00;99.90;;;;;;4915914;29;20216;-72
2021/03/23 17:27:50;;;;;;;11.90;6.43;;;12.90;99.90;;;;;;4916062;29;20265;-72
2021/03/23 17:30:18;;;;;;;10.73;5.67;;;12.80;99.90;;;;;;4916115;29;20209;-72
2021/03/23 17:32:45;;;;;;;10.27;5.30;;;12.70;99.90;;;;;;4916286;29;20234;-72
2021/03/23 17:35:13;;;;;;;10.30;6.10;;;12.80;99.90;;;;;;4918814;29;20296;-72
2021/03/23 17:37:39;;;;;;;13.17;5.53;;;12.70;99.90;;;;;;4919768;29;20253;-73
2021/03/23 17:40:07;;;;;;;14.97;6.43;;;12.60;99.90;;;;;;4919756;29;20217;-71
2021/03/23 17:42:34;;;;;;;10.27;6.13;;;12.60;99.90;;;;;;4919559;29;20241;-72
2021/03/23 17:45:00;;;;;;;15.77;5.67;;;12.60;99.90;;;;;;4919399;29;20213;-71
2021/03/23 17:47:27;;;;;;;9.90;5.80;;;12.60;99.90;;;;;;4919349;29;20223;-72
2021/03/23 17:49:53;;;;;;;10.47;6.00;;;12.60;99.90;;;;;;4919781;29;20216;-71
2021/03/23 17:52:20;;;;;;;10.53;6.07;;;12.50;99.90;;;;;;4919156;29;20256;-72
2021/03/23 17:54:46;;;;;;;11.60;5.50;;;12.40;99.90;;;;;;4920026;29;20214;-73
2021/03/23 17:57:12;;;;;;;11.87;5.97;;;12.40;99.90;;;;;;4919221;29;20708;-72
2021/03/23 17:59:39;;;;;;;13.13;5.67;;;12.30;99.90;;;;;;4919448;29;20218;-73
2021/03/23 18:02:05;;;;;;;10.30;5.57;;;12.20;99.90;;;;;;4919436;29;20249;-72
2021/03/23 18:04:32;;;;;;;12.27;5.67;;;12.10;99.90;;;;;;4919686;29;20261;-71
2021/03/23 18:06:58;;;;;;;10.80;5.53;;;12.00;99.90;;;;;;4919028;29;20225;-72
2021/03/23 18:09:25;;;;;;;15.37;5.87;;;11.80;99.90;;;;;;4919217;29;20281;-71
2021/03/23 18:11:52;;;;;;;13.70;5.67;;;11.80;99.90;;;;;;4919067;29;20596;-72
2021/03/23 18:14:18;;;;;;;11.73;5.87;;;11.60;99.90;;;;;;4919066;29;20241;-71
2021/03/23 18:16:45;;;;;;;12.47;6.07;;;11.50;99.90;;;;;;4919207;29;20226;-72
2021/03/23 18:19:11;;;;;;;10.23;5.70;;;11.30;99.90;;;;;;4919181;29;20218;-71
2021/03/23 18:21:37;;;;;;;10.57;5.83;;;11.20;99.90;;;;;;4919040;29;20213;-72
2021/03/23 18:24:04;;;;;;;13.97;5.80;;;11.10;99.90;;;;;;4918912;29;20234;-72
2021/03/23 18:26:31;;;;;;;14.67;6.00;;;11.00;99.90;;;;;;4918875;29;20223;-71
2021/03/23 18:28:58;;;;;;;11.70;5.80;;;10.80;99.90;;;;;;4919054;29;20217;-71
2021/03/23 18:31:24;;;;;;;9.83;5.57;;;10.70;99.90;;;;;;4918833;29;20268;-72
2021/03/23 18:33:50;;;;;;;10.70;5.43;;;10.70;99.90;;;;;;4918678;29;20236;-72
2021/03/23 18:36:18;;;;;;;11.60;5.57;;;10.60;99.90;;;;;;4918620;29;20695;-73
2021/03/23 18:38:44;;;;;;;11.60;5.33;;;10.50;99.90;;;;;;4918694;29;20304;-69
2021/03/23 18:41:11;;;;;;;11.73;5.40;;;10.50;99.90;;;;;;4918646;29;20214;-72
2021/03/23 18:43:38;;;;;;;14.23;6.03;;;10.40;99.90;;;;;;4918918;29;20285;-72
2021/03/23 18:46:04;;;;;;;10.77;4.97;;;10.30;99.90;;;;;;4918347;29;20573;-71
2021/03/23 18:48:31;;;;;;;13.37;5.33;;;10.20;99.90;;;;;;4918590;29;20213;-69
2021/03/23 18:50:58;;;;;;;11.10;5.67;;;10.10;99.90;;;;;;4918630;29;20225;-72
2021/03/23 18:53:24;;;;;;;13.17;6.50;;;10.00;99.90;;;;;;4918778;29;20708;-67
2021/03/23 18:55:53;;;;;;;10.63;5.33;;;9.90;99.90;;;;;;4919698;29;20672;-67
2021/03/23 18:58:20;;;;;;;14.13;5.70;;;9.80;99.90;;;;;;4919293;29;20206;-70
2021/03/23 19:00:49;;;;;;;11.73;5.77;;;9.80;99.90;;;;;;4919497;29;20218;-69
2021/03/23 19:03:18;;;;;;;10.63;5.77;;;9.80;99.90;;;;;;4919629;29;20622;-68
2021/03/23 19:05:45;;;;;;;13.87;7.10;;;9.70;99.90;;;;;;4918366;29;20261;-70
2021/03/23 19:08:11;;;;;;;20.23;7.43;;;9.60;99.90;;;;;;4910038;29;20321;-71
2021/03/23 19:10:39;;;;;;;13.80;7.10;;;9.50;99.90;;;;;;4917769;29;20237;-67
2021/03/23 19:13:06;;;;;;;16.07;6.67;;;9.50;99.90;;;;;;4916601;29;20230;-68
2021/03/23 19:15:32;;;;;;;14.10;6.17;;;9.40;99.90;;;;;;4915789;29;20756;-71
2021/03/23 19:18:01;;;;;;;15.87;6.60;;;9.30;99.90;;;;;;4916166;29;20218;-70
2021/03/23 19:20:30;;;;;;;15.97;7.23;;;9.20;99.90;;;;;;4916994;29;20309;-68
2021/03/23 19:22:58;;;;;;;12.73;6.40;;;9.20;99.90;;;;;;4915609;29;20313;-68
2021/03/23 19:25:24;;;;;;;17.70;7.63;;;9.10;99.90;;;;;;4916161;29;20213;-67
2021/03/23 19:27:51;;;;;;;16.77;7.87;;;9.10;99.90;;;;;;4915961;29;20210;-68
2021/03/23 19:30:19;;;;;;;15.47;6.97;;;9.10;99.90;;;;;;4915954;29;20217;-70
2021/03/23 19:32:45;;;;;;;14.13;6.63;;;9.00;99.90;;;;;;4916000;29;20609;-69
2021/03/23 19:35:14;;;;;;;23.67;8.03;;;8.90;99.90;;;;;;4915295;29;20265;-71
2021/03/23 19:37:41;;;;;;;15.70;7.00;;;8.80;99.90;;;;;;4915226;29;20316;-71
2021/03/23 19:40:10;;;;;;;14.13;6.30;;;8.70;99.90;;;;;;4915720;29;20343;-70
2021/03/23 19:42:36;;;;;;;14.77;6.47;;;8.70;99.90;;;;;;4915710;29;20230;-69
2021/03/23 19:45:04;;;;;;;12.33;6.37;;;8.70;99.90;;;;;;4915594;29;20249;-69
2021/03/23 19:47:30;;;;;;;13.63;5.80;;;8.80;99.90;;;;;;4916260;29;20209;-69
2021/03/23 19:49:56;;;;;;;14.70;7.53;;;8.70;99.90;;;;;;4914929;29;20273;-68
2021/03/23 19:52:23;;;;;;;14.17;6.90;;;8.60;99.90;;;;;;4914560;29;20241;-71
2021/03/23 19:54:49;;;;;;;14.03;6.63;;;8.50;99.90;;;;;;4915839;29;20236;-70
2021/03/23 19:57:16;;;;;;;11.77;5.90;;;8.40;99.90;;;;;;4915164;29;20217;-71
2021/03/23 19:59:42;;;;;;;11.33;6.37;;;8.30;99.90;;;;;;4914981;29;20209;-71
2021/03/23 20:02:10;;;;;;;12.40;6.37;;;8.40;99.90;;;;;;4915376;29;20221;-73
2021/03/23 20:04:36;;;;;;;12.23;6.40;;;8.30;99.90;;;;;;4915784;29;20210;-72